Time;durP1;ratioP1;P1;durP2;ratioP2;P2;SDS_P1;SDS_P2;PMS_P1;PMS_P2;Temp;Humidity;BMP_temperature;BMP_pressure;BME280_temperature;BME280_humidity;BME280_pressure;Samples;Min_cycle;Max_cycle;Signal;HPM_P1;HPM_P2
2023/05/13 00:01:20;;;;;;;15.07;13.48;;;;;;;;;;5060891;28;20100;-74
2023/05/13 00:03:46;;;;;;;16.10;13.10;;;;;;;;;;5038526;28;20496;-74
2023/05/13 00:06:12;;;;;;;16.38;13.77;;;;;;;;;;5037288;28;20040;-74
2023/05/13 00:08:38;;;;;;;15.73;13.93;;;;;;;;;;5068230;28;20049;-74
2023/05/13 00:11:04;;;;;;;17.80;13.77;;;;;;;;;;5065545;28;20079;-74
2023/05/13 00:13:30;;;;;;;16.73;13.73;;;;;;;;;;5053148;28;20087;-74
2023/05/13 00:15:56;;;;;;;19.55;14.10;;;;;;;;;;5052945;28;20102;-74
2023/05/13 00:18:22;;;;;;;16.85;13.95;;;;;;;;;;5026427;28;20049;-74
2023/05/13 00:20:48;;;;;;;16.13;13.18;;;;;;;;;;5055794;28;20045;-74
2023/05/13 00:23:14;;;;;;;15.60;13.73;;;;;;;;;;5073329;28;20045;-74
2023/05/13 00:25:42;;;;;;;16.52;14.18;;;;;;;;;;5072411;28;20124;-74
2023/05/13 00:28:09;;;;;;;19.30;14.10;;;;;;;;;;5072872;28;20048;-74
2023/05/13 00:30:35;;;;;;;14.35;12.85;;;;;;;;;;5059371;28;20060;-74
2023/05/13 00:33:01;;;;;;;15.52;13.32;;;;;;;;;;5057625;28;20483;-74
2023/05/13 00:35:28;;;;;;;15.13;12.45;;;;;;;;;;5075242;28;20410;-74
2023/05/13 00:37:54;;;;;;;19.05;13.73;;;;;;;;;;5070507;28;20048;-74
2023/05/13 00:40:21;;;;;;;17.60;12.93;;;;;;;;;;5058724;28;20093;-74
2023/05/13 00:42:47;;;;;;;16.80;12.95;;;;;;;;;;5055628;28;20127;-74
2023/05/13 00:45:13;;;;;;;16.33;12.73;;;;;;;;;;5056745;28;20137;-74
2023/05/13 00:47:40;;;;;;;13.35;11.93;;;;;;;;;;5067890;28;20095;-74
2023/05/13 00:50:07;;;;;;;16.38;12.20;;;;;;;;;;5075953;28;20471;-74
2023/05/13 00:52:33;;;;;;;13.55;11.98;;;;;;;;;;5058658;28;20048;-74
2023/05/13 00:54:59;;;;;;;16.25;13.18;;;;;;;;;;5042025;28;20119;-74
2023/05/13 00:57:25;;;;;;;15.15;12.77;;;;;;;;;;5074355;28;20076;-74
2023/05/13 00:59:51;;;;;;;15.82;13.70;;;;;;;;;;5071344;28;20048;-74
2023/05/13 01:02:17;;;;;;;16.73;13.30;;;;;;;;;;5038286;28;20045;-74
2023/05/13 01:04:50;;;;;;;16.90;13.68;;;;;;;;;;5053788;28;20055;-74
2023/05/13 01:07:19;;;;;;;14.07;11.50;;;;;;;;;;5056998;28;20052;-75
2023/05/13 01:10:21;;;;;;;12.77;11.48;;;;;;;;;;5058350;28;20147;-73
2023/05/13 01:12:48;;;;;;;17.08;12.32;;;;;;;;;;4980445;28;20106;-74
2023/05/13 01:15:16;;;;;;;15.07;11.93;;;;;;;;;;4995427;28;20046;-73
2023/05/13 01:17:42;;;;;;;16.00;12.63;;;;;;;;;;4962227;28;20051;-74
2023/05/13 01:20:08;;;;;;;17.75;13.75;;;;;;;;;;4977362;28;20077;-74
2023/05/13 01:22:34;;;;;;;14.35;12.85;;;;;;;;;;4994357;28;20501;-74
2023/05/13 01:25:00;;;;;;;19.05;13.90;;;;;;;;;;4994112;28;20053;-74
2023/05/13 01:27:26;;;;;;;16.73;14.45;;;;;;;;;;4993191;28;20058;-74
2023/05/13 01:29:53;;;;;;;17.13;14.05;;;;;;;;;;4977911;28;20501;-74
2023/05/13 01:32:21;;;;;;;16.30;13.18;;;;;;;;;;4993454;28;20142;-74
2023/05/13 01:34:47;;;;;;;15.63;13.40;;;;;;;;;;4993685;28;20054;-74
2023/05/13 01:37:13;;;;;;;15.70;13.25;;;;;;;;;;4960805;28;20039;-74
2023/05/13 01:39:39;;;;;;;16.23;12.93;;;;;;;;;;4974093;28;20055;-74
2023/05/13 01:42:06;;;;;;;16.25;13.75;;;;;;;;;;4987435;28;20049;-74
2023/05/13 01:44:32;;;;;;;14.60;12.88;;;;;;;;;;4993760;28;20058;-74
2023/05/13 01:46:58;;;;;;;15.88;13.18;;;;;;;;;;5041798;28;20044;-74
2023/05/13 01:49:24;;;;;;;13.88;12.38;;;;;;;;;;5061230;28;20033;-74
2023/05/13 01:51:51;;;;;;;17.42;13.73;;;;;;;;;;5055030;28;20049;-74
2023/05/13 01:54:17;;;;;;;15.07;13.48;;;;;;;;;;5066727;28;20044;-74
2023/05/13 01:56:43;;;;;;;15.70;12.10;;;;;;;;;;5075191;28;20079;-74
2023/05/13 01:59:09;;;;;;;16.08;12.20;;;;;;;;;;5073439;28;20048;-74
2023/05/13 02:01:36;;;;;;;15.38;12.77;;;;;;;;;;5075029;28;20094;-74
2023/05/13 02:04:02;;;;;;;15.20;12.55;;;;;;;;;;5053094;28;20385;-74
2023/05/13 02:06:28;;;;;;;15.68;12.25;;;;;;;;;;5055269;28;20041;-74
2023/05/13 02:08:54;;;;;;;16.00;12.63;;;;;;;;;;5063664;28;20478;-74
2023/05/13 02:11:21;;;;;;;12.82;11.52;;;;;;;;;;5053604;28;20094;-74
2023/05/13 02:13:47;;;;;;;15.43;12.48;;;;;;;;;;5073397;28;20089;-74
2023/05/13 02:16:17;;;;;;;14.52;12.82;;;;;;;;;;5075005;28;20048;-74
2023/05/13 02:18:43;;;;;;;16.33;13.45;;;;;;;;;;5054878;28;20060;-74
2023/05/13 02:21:09;;;;;;;14.65;12.75;;;;;;;;;;5055781;28;20052;-74
2023/05/13 02:23:35;;;;;;;16.13;12.82;;;;;;;;;;5047746;28;20065;-74
2023/05/13 02:26:01;;;;;;;14.93;12.98;;;;;;;;;;5054394;28;20080;-74
2023/05/13 02:28:27;;;;;;;14.38;12.55;;;;;;;;;;5054834;28;20106;-74
2023/05/13 02:30:53;;;;;;;16.23;12.93;;;;;;;;;;5036803;28;20059;-74
2023/05/13 02:33:19;;;;;;;20.60;14.32;;;;;;;;;;5059110;28;20040;-73
2023/05/13 02:35:45;;;;;;;17.90;15.13;;;;;;;;;;5073518;28;20048;-74
2023/05/13 02:38:11;;;;;;;22.67;15.15;;;;;;;;;;5066886;28;20072;-74
2023/05/13 02:40:38;;;;;;;19.45;15.55;;;;;;;;;;5054378;28;20045;-74
2023/05/13 02:43:04;;;;;;;17.90;14.65;;;;;;;;;;5054303;28;20143;-74
2023/05/13 02:45:30;;;;;;;15.75;13.25;;;;;;;;;;5054762;28;20041;-74
2023/05/13 02:47:56;;;;;;;15.07;13.48;;;;;;;;;;5066690;28;20046;-74
2023/05/13 02:50:22;;;;;;;17.92;12.98;;;;;;;;;;5057043;28;20482;-74
2023/05/13 02:52:48;;;;;;;15.80;12.60;;;;;;;;;;5053229;28;20049;-73
2023/05/13 02:55:14;;;;;;;15.25;13.07;;;;;;;;;;5054159;28;20102;-74
2023/05/13 02:57:40;;;;;;;14.75;12.70;;;;;;;;;;5054740;28;20094;-73
2023/05/13 03:00:07;;;;;;;14.68;12.88;;;;;;;;;;5054179;28;20084;-74
2023/05/13 03:02:33;;;;;;;15.13;12.40;;;;;;;;;;5055262;28;20479;-73
2023/05/13 03:04:59;;;;;;;13.43;12.00;;;;;;;;;;5058323;28;20049;-73
2023/05/13 03:07:25;;;;;;;14.40;12.00;;;;;;;;;;5053891;28;20388;-74
2023/05/13 03:09:51;;;;;;;13.40;11.82;;;;;;;;;;5073383;28;20044;-73
2023/05/13 03:12:17;;;;;;;14.52;10.90;;;;;;;;;;5073952;28;20098;-73
2023/05/13 03:14:43;;;;;;;13.88;10.95;;;;;;;;;;5073381;28;20425;-73
2023/05/13 03:17:10;;;;;;;12.32;11.02;;;;;;;;;;5071162;28;20398;-73
2023/05/13 03:19:37;;;;;;;15.52;11.65;;;;;;;;;;5072509;28;20537;-73
2023/05/13 03:22:03;;;;;;;14.55;11.77;;;;;;;;;;5053392;28;20435;-73
2023/05/13 03:24:29;;;;;;;12.25;10.48;;;;;;;;;;5053665;28;20498;-74
2023/05/13 03:26:56;;;;;;;12.15;10.55;;;;;;;;;;5053745;28;20041;-73
2023/05/13 03:29:22;;;;;;;14.75;11.70;;;;;;;;;;5035548;28;20052;-73
2023/05/13 03:31:48;;;;;;;14.35;10.93;;;;;;;;;;5060419;28;20044;-73
2023/05/13 03:34:15;;;;;;;12.07;10.55;;;;;;;;;;5053645;28;20063;-73
2023/05/13 03:36:41;;;;;;;14.15;10.93;;;;;;;;;;5053404;28;20419;-73
2023/05/13 03:39:07;;;;;;;15.32;11.30;;;;;;;;;;5053793;28;20388;-73
2023/05/13 03:41:33;;;;;;;14.32;11.40;;;;;;;;;;5053447;28;20051;-73
2023/05/13 03:43:59;;;;;;;14.23;12.05;;;;;;;;;;5045912;28;20037;-73
2023/05/13 03:46:26;;;;;;;16.10;12.60;;;;;;;;;;5073615;28;20123;-73
2023/05/13 03:48:53;;;;;;;16.20;13.07;;;;;;;;;;5052811;28;20081;-73
2023/05/13 03:51:19;;;;;;;15.68;12.02;;;;;;;;;;5059093;28;20052;-73
2023/05/13 03:53:45;;;;;;;16.30;12.07;;;;;;;;;;5054205;28;20120;-73
2023/05/13 03:56:11;;;;;;;16.83;12.63;;;;;;;;;;5073292;28;20080;-73
2023/05/13 03:58:38;;;;;;;18.67;13.60;;;;;;;;;;5068638;28;20512;-74
2023/05/13 04:01:04;;;;;;;15.63;13.63;;;;;;;;;;5053004;28;20574;-74
2023/05/13 04:03:30;;;;;;;17.05;13.00;;;;;;;;;;5018310;28;20041;-74
2023/05/13 04:05:56;;;;;;;16.65;13.45;;;;;;;;;;5067049;28;20368;-73
2023/05/13 04:08:22;;;;;;;19.20;13.32;;;;;;;;;;5066270;28;20071;-74
2023/05/13 04:10:48;;;;;;;16.52;12.05;;;;;;;;;;5036301;28;20075;-73
2023/05/13 04:13:14;;;;;;;18.15;12.55;;;;;;;;;;5054006;28;20037;-74
2023/05/13 04:15:40;;;;;;;13.63;11.68;;;;;;;;;;5035446;28;20079;-74
2023/05/13 04:18:06;;;;;;;16.63;12.85;;;;;;;;;;5018598;28;20052;-73
2023/05/13 04:20:32;;;;;;;16.75;13.02;;;;;;;;;;5044954;28;20056;-73
2023/05/13 04:22:58;;;;;;;13.48;11.80;;;;;;;;;;5018967;28;20041;-73
2023/05/13 04:25:24;;;;;;;18.27;11.15;;;;;;;;;;5028514;28;20033;-73
2023/05/13 04:27:50;;;;;;;14.55;11.27;;;;;;;;;;5041105;28;20045;-74
2023/05/13 04:30:16;;;;;;;14.55;10.88;;;;;;;;;;5023110;28;20044;-73
2023/05/13 04:32:42;;;;;;;12.32;11.02;;;;;;;;;;5053814;28;20044;-73
2023/05/13 04:35:09;;;;;;;12.75;10.77;;;;;;;;;;5052755;28;20041;-73
2023/05/13 04:37:35;;;;;;;13.20;10.43;;;;;;;;;;5063696;28;20049;-74
2023/05/13 04:40:01;;;;;;;13.25;10.65;;;;;;;;;;5059923;28;20041;-74
2023/05/13 04:42:27;;;;;;;13.80;10.85;;;;;;;;;;5052794;28;20049;-74
2023/05/13 04:44:53;;;;;;;19.05;11.30;;;;;;;;;;5052915;28;20045;-74
2023/05/13 04:47:19;;;;;;;12.18;9.98;;;;;;;;;;5059839;28;20425;-73
2023/05/13 04:49:45;;;;;;;12.05;10.50;;;;;;;;;;5072211;28;20486;-74
2023/05/13 04:52:12;;;;;;;15.90;11.05;;;;;;;;;;5033609;28;20051;-73
2023/05/13 04:54:38;;;;;;;14.52;10.90;;;;;;;;;;5052074;28;20422;-74
2023/05/13 04:57:04;;;;;;;13.48;10.25;;;;;;;;;;5042247;28;20364;-74
2023/05/13 04:59:31;;;;;;;12.15;9.88;;;;;;;;;;5045113;28;20143;-74
2023/05/13 05:01:57;;;;;;;14.32;10.23;;;;;;;;;;5034899;28;20075;-74
2023/05/13 05:04:24;;;;;;;21.13;9.98;;;;;;;;;;5054922;28;20053;-74
2023/05/13 05:06:50;;;;;;;10.55;9.07;;;;;;;;;;5055752;28;20037;-74
2023/05/13 05:09:17;;;;;;;14.63;10.23;;;;;;;;;;5054581;28;20096;-74
2023/05/13 05:11:43;;;;;;;14.00;10.27;;;;;;;;;;5072447;28;20090;-74
2023/05/13 05:14:09;;;;;;;13.23;9.20;;;;;;;;;;5072565;28;20049;-74
2023/05/13 05:16:36;;;;;;;10.25;9.05;;;;;;;;;;5060526;28;20399;-74
2023/05/13 05:19:02;;;;;;;10.60;9.38;;;;;;;;;;5056144;28;20116;-74
2023/05/13 05:21:28;;;;;;;13.15;10.40;;;;;;;;;;5059515;28;20072;-74
2023/05/13 05:23:54;;;;;;;14.38;9.35;;;;;;;;;;5075353;28;20072;-74
2023/05/13 05:26:21;;;;;;;13.93;9.82;;;;;;;;;;5042187;28;20124;-74
2023/05/13 05:28:47;;;;;;;11.20;9.15;;;;;;;;;;5056229;28;20144;-74
2023/05/13 05:31:13;;;;;;;12.60;9.20;;;;;;;;;;5055577;28;20041;-74
2023/05/13 05:33:39;;;;;;;13.32;9.63;;;;;;;;;;5064939;28;20124;-74
2023/05/13 05:36:05;;;;;;;11.68;9.30;;;;;;;;;;5075358;28;20126;-74
2023/05/13 05:38:32;;;;;;;15.55;9.98;;;;;;;;;;5035869;28;20049;-74
2023/05/13 05:40:58;;;;;;;10.48;8.95;;;;;;;;;;5055624;28;20052;-74
2023/05/13 05:43:24;;;;;;;12.25;9.57;;;;;;;;;;5068444;28;20517;-74
2023/05/13 05:45:50;;;;;;;10.95;8.82;;;;;;;;;;5065422;28;20040;-74
2023/05/13 05:48:16;;;;;;;16.92;9.85;;;;;;;;;;5075365;28;20167;-74
2023/05/13 05:50:42;;;;;;;10.45;8.70;;;;;;;;;;5075577;28;20177;-74
2023/05/13 05:53:08;;;;;;;9.93;8.95;;;;;;;;;;5073777;28;20542;-74
2023/05/13 05:55:34;;;;;;;9.82;8.23;;;;;;;;;;5075284;28;20123;-75
2023/05/13 05:58:04;;;;;;;9.20;8.23;;;;;;;;;;5057291;28;20048;-74
2023/05/13 06:00:30;;;;;;;13.02;9.05;;;;;;;;;;5066239;28;20494;-74
2023/05/13 06:02:57;;;;;;;10.77;8.35;;;;;;;;;;5055816;28;20037;-75
2023/05/13 06:05:23;;;;;;;11.60;9.15;;;;;;;;;;5063505;28;20044;-74
2023/05/13 06:07:49;;;;;;;11.13;7.70;;;;;;;;;;5058825;28;20149;-74
2023/05/13 06:10:17;;;;;;;10.02;7.82;;;;;;;;;;5037179;28;20045;-74
2023/05/13 06:12:43;;;;;;;9.77;8.15;;;;;;;;;;5071651;28;20391;-74
2023/05/13 06:15:09;;;;;;;8.48;7.43;;;;;;;;;;5056884;28;20086;-74
2023/05/13 06:17:39;;;;;;;9.35;8.07;;;;;;;;;;5034810;28;20048;-74
2023/05/13 06:20:05;;;;;;;11.20;8.43;;;;;;;;;;5055276;28;20037;-74
2023/05/13 06:22:31;;;;;;;12.45;8.48;;;;;;;;;;5062609;28;20048;-75
2023/05/13 06:24:57;;;;;;;10.18;7.85;;;;;;;;;;5073831;28;20041;-74
2023/05/13 06:27:24;;;;;;;10.40;7.82;;;;;;;;;;5055047;28;20043;-74
2023/05/13 06:29:50;;;;;;;10.50;8.35;;;;;;;;;;5055967;28;20128;-74
2023/05/13 06:32:16;;;;;;;9.85;8.57;;;;;;;;;;5036815;28;20045;-73
2023/05/13 06:34:45;;;;;;;10.02;8.15;;;;;;;;;;5055708;28;20041;-74
2023/05/13 06:37:12;;;;;;;12.27;8.82;;;;;;;;;;5069466;28;20033;-74
2023/05/13 06:39:38;;;;;;;10.40;7.80;;;;;;;;;;5059453;28;20131;-74
2023/05/13 06:42:04;;;;;;;13.63;8.13;;;;;;;;;;5056017;28;20492;-74
2023/05/13 06:44:30;;;;;;;12.48;7.88;;;;;;;;;;5054755;28;20051;-74
2023/05/13 06:46:57;;;;;;;9.57;7.35;;;;;;;;;;5062738;28;20041;-74
2023/05/13 06:49:26;;;;;;;10.38;7.57;;;;;;;;;;5059874;28;20041;-73
2023/05/13 06:51:52;;;;;;;9.80;8.30;;;;;;;;;;5055944;28;20041;-74
2023/05/13 06:54:18;;;;;;;11.45;7.55;;;;;;;;;;5071083;28;20044;-74
2023/05/13 06:56:44;;;;;;;11.27;7.40;;;;;;;;;;5053140;28;20383;-74
2023/05/13 06:59:10;;;;;;;9.60;7.80;;;;;;;;;;5074221;28;20045;-74
2023/05/13 07:01:36;;;;;;;10.02;8.32;;;;;;;;;;5073916;28;20402;-74
2023/05/13 07:04:03;;;;;;;13.45;8.63;;;;;;;;;;5072937;28;20090;-74
2023/05/13 07:06:29;;;;;;;9.10;8.20;;;;;;;;;;5053780;28;20120;-74
2023/05/13 07:08:56;;;;;;;9.85;8.10;;;;;;;;;;5063784;28;20087;-74
2023/05/13 07:11:22;;;;;;;9.68;7.93;;;;;;;;;;5073691;28;20471;-74
2023/05/13 07:13:48;;;;;;;11.23;8.07;;;;;;;;;;5073943;28;20045;-74
2023/05/13 07:16:14;;;;;;;12.88;8.63;;;;;;;;;;5066269;28;20036;-75
2023/05/13 07:18:40;;;;;;;11.52;8.27;;;;;;;;;;5053901;28;20044;-74
2023/05/13 07:21:06;;;;;;;13.18;8.82;;;;;;;;;;5019213;28;20081;-74
2023/05/13 07:23:32;;;;;;;9.85;8.55;;;;;;;;;;5064444;28;20041;-78
2023/05/13 07:25:58;;;;;;;11.40;8.52;;;;;;;;;;5059239;28;20219;-74
2023/05/13 07:28:24;;;;;;;9.68;8.40;;;;;;;;;;5053471;28;20512;-74
2023/05/13 07:30:52;;;;;;;12.60;9.18;;;;;;;;;;5053268;28;20557;-76
2023/05/13 07:33:18;;;;;;;11.50;9.20;;;;;;;;;;5053185;28;20068;-74
2023/05/13 07:35:44;;;;;;;9.77;8.38;;;;;;;;;;5059742;28;20048;-74
2023/05/13 07:38:10;;;;;;;9.73;8.73;;;;;;;;;;5072412;28;20049;-74
2023/05/13 07:40:37;;;;;;;11.02;8.00;;;;;;;;;;5063483;28;20093;-74
2023/05/13 07:43:03;;;;;;;10.77;9.23;;;;;;;;;;5068094;28;21503;-75
2023/05/13 07:45:29;;;;;;;13.98;9.45;;;;;;;;;;5066859;28;20040;-75
2023/05/13 07:47:55;;;;;;;11.40;9.20;;;;;;;;;;5067783;28;20041;-75
2023/05/13 07:50:21;;;;;;;9.52;7.80;;;;;;;;;;5061819;28;20411;-75
2023/05/13 07:52:48;;;;;;;10.40;8.32;;;;;;;;;;5070699;28;20405;-75
2023/05/13 07:55:17;;;;;;;14.32;9.10;;;;;;;;;;5062499;28;20098;-77
2023/05/13 07:57:43;;;;;;;11.02;8.48;;;;;;;;;;5069990;28;20119;-75
2023/05/13 08:00:10;;;;;;;9.15;7.75;;;;;;;;;;5035613;28;20051;-75
2023/05/13 08:02:39;;;;;;;11.80;8.40;;;;;;;;;;5051590;28;20106;-75
2023/05/13 08:05:05;;;;;;;11.73;8.88;;;;;;;;;;5037709;28;20479;-75
2023/05/13 08:07:31;;;;;;;12.55;9.18;;;;;;;;;;5069232;28;20102;-75
2023/05/13 08:09:58;;;;;;;12.52;9.27;;;;;;;;;;5033040;28;20044;-75
2023/05/13 08:12:24;;;;;;;15.63;9.25;;;;;;;;;;5056107;28;20056;-75
2023/05/13 08:14:50;;;;;;;12.20;9.57;;;;;;;;;;5053587;28;20044;-75
2023/05/13 08:17:18;;;;;;;9.77;8.75;;;;;;;;;;5059470;28;20047;-75
2023/05/13 08:19:45;;;;;;;15.23;10.07;;;;;;;;;;5071039;28;20048;-75
2023/05/13 08:22:11;;;;;;;13.57;9.60;;;;;;;;;;5057694;28;20049;-75
2023/05/13 08:24:39;;;;;;;11.50;9.43;;;;;;;;;;5065032;28;20052;-75
2023/05/13 08:27:05;;;;;;;13.68;9.73;;;;;;;;;;5056434;28;20563;-75
2023/05/13 08:29:31;;;;;;;11.93;9.25;;;;;;;;;;5054839;28;20063;-75
2023/05/13 08:31:57;;;;;;;13.10;9.93;;;;;;;;;;5059282;28;20044;-75
2023/05/13 08:34:23;;;;;;;10.10;9.05;;;;;;;;;;5058550;28;20063;-75
2023/05/13 08:36:49;;;;;;;12.07;9.73;;;;;;;;;;5060005;28;20045;-74
2023/05/13 08:39:15;;;;;;;11.32;9.05;;;;;;;;;;5062342;28;20040;-75
2023/05/13 08:41:43;;;;;;;12.70;8.88;;;;;;;;;;5072616;28;20044;-75
2023/05/13 08:44:14;;;;;;;11.35;8.63;;;;;;;;;;5054379;28;20037;-75
2023/05/13 08:46:44;;;;;;;11.10;8.90;;;;;;;;;;5058203;28;20040;-75
2023/05/13 08:49:10;;;;;;;12.63;9.75;;;;;;;;;;5057058;28;20040;-75
2023/05/13 08:51:36;;;;;;;12.13;10.32;;;;;;;;;;5061104;28;20040;-77
2023/05/13 08:54:03;;;;;;;10.90;8.77;;;;;;;;;;5054443;28;20072;-78
2023/05/13 08:56:29;;;;;;;11.88;9.57;;;;;;;;;;5073327;28;20045;-77
2023/05/13 08:58:55;;;;;;;13.57;9.80;;;;;;;;;;5077967;28;20106;-77
2023/05/13 09:01:22;;;;;;;10.85;9.35;;;;;;;;;;5064361;28;20055;-77
2023/05/13 09:03:54;;;;;;;10.55;9.55;;;;;;;;;;5029419;28;20123;-78
2023/05/13 09:06:20;;;;;;;10.55;9.48;;;;;;;;;;5066084;28;20083;-77
2023/05/13 09:08:46;;;;;;;14.52;9.82;;;;;;;;;;5067115;28;20553;-77
2023/05/13 09:11:13;;;;;;;10.57;9.38;;;;;;;;;;5060443;28;20427;-77
2023/05/13 09:13:39;;;;;;;10.88;8.75;;;;;;;;;;5066191;28;20048;-77
2023/05/13 09:16:06;;;;;;;9.98;8.75;;;;;;;;;;5060577;28;20479;-77
2023/05/13 09:18:32;;;;;;;9.52;8.18;;;;;;;;;;5061979;28;20414;-76
2023/05/13 09:20:58;;;;;;;11.18;8.70;;;;;;;;;;5046882;28;20048;-77
2023/05/13 09:23:24;;;;;;;11.98;9.30;;;;;;;;;;5057460;28;20052;-77
2023/05/13 09:25:50;;;;;;;9.75;8.32;;;;;;;;;;5062513;28;20045;-77
2023/05/13 09:28:16;;;;;;;13.32;10.32;;;;;;;;;;5065226;28;20044;-77
2023/05/13 09:30:42;;;;;;;11.40;8.82;;;;;;;;;;5054521;28;20041;-77
2023/05/13 09:33:18;;;;;;;13.10;9.98;;;;;;;;;;5056262;28;20060;-77
2023/05/13 09:35:53;;;;;;;11.23;8.88;;;;;;;;;;5069668;28;20036;-77
2023/05/13 09:38:27;;;;;;;11.17;8.20;;;;;;;;;;5058062;28;20109;-77
2023/05/13 09:40:57;;;;;;;11.55;9.52;;;;;;;;;;5067667;28;20463;-76
2023/05/13 09:43:27;;;;;;;13.68;9.30;;;;;;;;;;5055178;28;20047;-76
2023/05/13 09:45:54;;;;;;;13.07;10.60;;;;;;;;;;5041842;28;20072;-76
2023/05/13 09:48:21;;;;;;;12.23;9.90;;;;;;;;;;5071221;28;20387;-77
2023/05/13 09:50:48;;;;;;;10.80;9.70;;;;;;;;;;5055961;28;20041;-77
2023/05/13 09:53:15;;;;;;;13.55;9.55;;;;;;;;;;5035833;28;20040;-78
2023/05/13 09:55:48;;;;;;;12.48;10.35;;;;;;;;;;5049530;28;20380;-77
2023/05/13 09:58:14;;;;;;;12.23;9.48;;;;;;;;;;5057836;28;20175;-77
2023/05/13 10:00:41;;;;;;;11.25;10.05;;;;;;;;;;5066441;28;20118;-77
2023/05/13 10:03:08;;;;;;;13.82;9.38;;;;;;;;;;5069765;28;20047;-77
2023/05/13 10:05:34;;;;;;;11.68;9.73;;;;;;;;;;5053615;28;20480;-77
2023/05/13 10:08:01;;;;;;;13.90;9.70;;;;;;;;;;5057404;28;20041;-77
2023/05/13 10:10:29;;;;;;;11.18;9.27;;;;;;;;;;5073243;28;20040;-77
2023/05/13 10:12:56;;;;;;;11.05;9.00;;;;;;;;;;5037536;28;20041;-77
2023/05/13 10:15:23;;;;;;;11.23;10.10;;;;;;;;;;5058432;28;20043;-78
2023/05/13 10:17:49;;;;;;;13.40;9.15;;;;;;;;;;5055407;28;20071;-77
2023/05/13 10:20:15;;;;;;;10.90;9.80;;;;;;;;;;5071452;28;20490;-77
2023/05/13 10:22:42;;;;;;;10.43;8.57;;;;;;;;;;5062048;28;20052;-77
2023/05/13 10:25:08;;;;;;;12.80;9.65;;;;;;;;;;5056128;28;20048;-77
2023/05/13 10:27:34;;;;;;;12.77;9.52;;;;;;;;;;5067918;28;20155;-77
2023/05/13 10:30:03;;;;;;;10.43;8.23;;;;;;;;;;5054715;28;20099;-77
2023/05/13 10:32:29;;;;;;;14.20;9.95;;;;;;;;;;5051114;28;20049;-77
2023/05/13 10:35:01;;;;;;;11.65;10.43;;;;;;;;;;5061980;28;20546;-77
2023/05/13 10:37:54;;;;;;;10.48;8.75;;;;;;;;;;5056806;28;20045;-77
2023/05/13 10:40:32;;;;;;;10.68;9.45;;;;;;;;;;5054168;28;20080;-77
2023/05/13 10:43:01;;;;;;;14.93;10.45;;;;;;;;;;5067460;28;20080;-77
2023/05/13 10:45:27;;;;;;;11.48;10.00;;;;;;;;;;5061775;28;20540;-78
2023/05/13 10:47:55;;;;;;;11.15;9.82;;;;;;;;;;5061966;28;20068;-77
2023/05/13 10:50:22;;;;;;;12.98;9.95;;;;;;;;;;5036852;28;20446;-77
2023/05/13 10:52:48;;;;;;;10.48;9.07;;;;;;;;;;5054426;28;20064;-78
2023/05/13 10:55:16;;;;;;;10.95;9.65;;;;;;;;;;5068316;28;20123;-78
2023/05/13 10:57:42;;;;;;;14.25;10.40;;;;;;;;;;5068580;28;20459;-78
2023/05/13 11:00:15;;;;;;;11.30;8.60;;;;;;;;;;5060334;28;20036;-78
2023/05/13 11:02:41;;;;;;;12.40;9.32;;;;;;;;;;5063693;28;20048;-80
2023/05/13 11:05:07;;;;;;;11.68;8.95;;;;;;;;;;5061150;28;20044;-78
2023/05/13 11:07:38;;;;;;;11.00;9.90;;;;;;;;;;5073332;28;20043;-78
2023/05/13 11:10:23;;;;;;;10.07;8.68;;;;;;;;;;5061358;28;20036;-79
2023/05/13 11:13:09;;;;;;;9.93;8.60;;;;;;;;;;5073720;28;20075;-79
2023/05/13 11:15:35;;;;;;;;;;;;;;;;;;5060274;28;20079;-78
2023/05/13 11:18:01;;;;;;;11.15;8.55;;;;;;;;;;5069545;28;20363;-83
2023/05/13 11:20:27;;;;;;;9.82;8.40;;;;;;;;;;5055619;28;20045;-80
2023/05/13 11:22:53;;;;;;;10.95;9.27;;;;;;;;;;5061809;28;20102;-78
2023/05/13 11:25:26;;;;;;;10.13;8.00;;;;;;;;;;5055051;28;20124;-78
2023/05/13 11:27:52;;;;;;;11.98;9.43;;;;;;;;;;5040228;28;20048;-78
2023/05/13 11:30:27;;;;;;;14.48;9.77;;;;;;;;;;5051961;28;20044;-82
2023/05/13 11:32:55;;;;;;;14.85;10.10;;;;;;;;;;5054601;28;20045;-77
2023/05/13 11:35:21;;;;;;;13.02;9.95;;;;;;;;;;5070274;28;20127;-77
2023/05/13 11:37:48;;;;;;;11.27;9.88;;;;;;;;;;5061650;28;20498;-77
2023/05/13 11:40:23;;;;;;;13.90;10.00;;;;;;;;;;5055040;28;20441;-78
2023/05/13 11:42:49;;;;;;;13.60;10.30;;;;;;;;;;5058347;28;20546;-79
2023/05/13 11:45:19;;;;;;;13.88;9.63;;;;;;;;;;5024737;28;20044;-79
2023/05/13 11:47:45;;;;;;;18.52;11.27;;;;;;;;;;5052501;28;20060;-78
2023/05/13 11:50:21;;;;;;;12.60;9.48;;;;;;;;;;5055571;28;20044;-78
2023/05/13 11:52:51;;;;;;;13.25;9.85;;;;;;;;;;5064277;28;20477;-78
2023/05/13 11:55:24;;;;;;;13.93;10.25;;;;;;;;;;5053254;28;20376;-78
2023/05/13 11:57:51;;;;;;;13.98;10.57;;;;;;;;;;5043471;28;20097;-79
2023/05/13 12:00:17;;;;;;;11.85;9.95;;;;;;;;;;5066503;28;20479;-79
2023/05/13 12:02:44;;;;;;;16.20;9.60;;;;;;;;;;5073523;28;20475;-79
2023/05/13 12:05:11;;;;;;;15.52;11.60;;;;;;;;;;5066839;28;20045;-78
2023/05/13 12:07:38;;;;;;;14.32;10.48;;;;;;;;;;5053862;28;20045;-78
2023/05/13 12:10:05;;;;;;;14.13;10.60;;;;;;;;;;5036301;28;20044;-79
2023/05/13 12:12:33;;;;;;;14.10;10.57;;;;;;;;;;5064150;28;20052;-78
2023/05/13 12:15:00;;;;;;;13.73;9.85;;;;;;;;;;5054273;28;20103;-79
2023/05/13 12:17:26;;;;;;;12.95;10.95;;;;;;;;;;5053462;28;20124;-79
2023/05/13 12:20:05;;;;;;;14.02;10.52;;;;;;;;;;5063319;28;20044;-78
2023/05/13 12:22:32;;;;;;;14.93;10.82;;;;;;;;;;5053816;28;20084;-79
2023/05/13 12:25:00;;;;;;;15.10;9.48;;;;;;;;;;5057168;28;20051;-79
2023/05/13 12:27:27;;;;;;;10.65;9.55;;;;;;;;;;5063264;28;20058;-78
2023/05/13 12:29:56;;;;;;;11.05;9.05;;;;;;;;;;5066147;28;20037;-77
2023/05/13 12:32:24;;;;;;;15.32;10.52;;;;;;;;;;5063788;28;20045;-77
2023/05/13 12:34:51;;;;;;;13.20;10.93;;;;;;;;;;5067299;28;20044;-77
2023/05/13 12:37:17;;;;;;;10.60;9.48;;;;;;;;;;5057240;28;20123;-77
2023/05/13 12:39:43;;;;;;;15.13;11.40;;;;;;;;;;5056944;28;20045;-77
2023/05/13 12:42:13;;;;;;;12.02;9.70;;;;;;;;;;5047247;28;20616;-77
2023/05/13 12:44:41;;;;;;;16.65;11.52;;;;;;;;;;5048775;28;20532;-77
2023/05/13 12:47:09;;;;;;;13.98;10.43;;;;;;;;;;5078056;28;20041;-77
2023/05/13 12:49:35;;;;;;;13.15;10.45;;;;;;;;;;5078506;28;20119;-77
2023/05/13 12:52:03;;;;;;;13.82;9.38;;;;;;;;;;5060171;28;20061;-83
2023/05/13 12:54:29;;;;;;;12.00;9.32;;;;;;;;;;5071622;28;20048;-78
2023/05/13 12:56:55;;;;;;;11.82;9.80;;;;;;;;;;5075766;28;20495;-78
2023/05/13 12:59:21;;;;;;;11.27;9.05;;;;;;;;;;5070510;28;20118;-78
2023/05/13 13:01:48;;;;;;;13.02;9.40;;;;;;;;;;5064768;28;20091;-78
2023/05/13 13:04:15;;;;;;;10.07;9.02;;;;;;;;;;5056173;28;20059;-78
2023/05/13 13:06:41;;;;;;;9.77;8.82;;;;;;;;;;5063894;28;20103;-78
2023/05/13 13:09:07;;;;;;;9.10;8.20;;;;;;;;;;5054826;28;20045;-78
2023/05/13 13:11:33;;;;;;;11.90;8.00;;;;;;;;;;5054928;28;20049;-78
2023/05/13 13:13:59;;;;;;;12.68;8.70;;;;;;;;;;5056587;28;20047;-78
2023/05/13 13:16:26;;;;;;;10.15;9.15;;;;;;;;;;5055814;28;20044;-77
2023/05/13 13:18:53;;;;;;;12.73;7.80;;;;;;;;;;5057202;28;20048;-80
2023/05/13 13:21:19;;;;;;;10.65;8.35;;;;;;;;;;5042013;28;20423;-77
2023/05/13 13:23:45;;;;;;;9.27;7.97;;;;;;;;;;5072640;28;20075;-77
2023/05/13 13:26:11;;;;;;;12.05;8.13;;;;;;;;;;5076587;28;20049;-78
2023/05/13 13:28:37;;;;;;;11.20;8.13;;;;;;;;;;5057636;28;20041;-78
2023/05/13 13:31:03;;;;;;;11.70;9.18;;;;;;;;;;5055590;28;20128;-77
2023/05/13 13:33:30;;;;;;;10.02;8.60;;;;;;;;;;5057090;28;20082;-77
2023/05/13 13:35:56;;;;;;;12.45;8.55;;;;;;;;;;5055159;28;20037;-77
2023/05/13 13:38:22;;;;;;;10.27;8.55;;;;;;;;;;5074977;28;20041;-77
2023/05/13 13:40:48;;;;;;;9.43;8.50;;;;;;;;;;5061737;28;20045;-77
2023/05/13 13:43:14;;;;;;;10.27;9.13;;;;;;;;;;5055684;28;20047;-77
2023/05/13 13:45:40;;;;;;;16.60;9.95;;;;;;;;;;5051521;28;20052;-78
2023/05/13 13:48:06;;;;;;;13.57;10.90;;;;;;;;;;5061646;28;20068;-78
2023/05/13 13:50:32;;;;;;;13.60;10.98;;;;;;;;;;5070541;28;20048;-78
2023/05/13 13:52:58;;;;;;;14.18;10.52;;;;;;;;;;5055317;28;20119;-78
2023/05/13 13:55:25;;;;;;;12.38;10.27;;;;;;;;;;5037464;28;20045;-78
2023/05/13 13:57:51;;;;;;;11.20;10.10;;;;;;;;;;5056114;28;20464;-78
2023/05/13 14:00:17;;;;;;;11.90;9.82;;;;;;;;;;5063847;28;20037;-78
2023/05/13 14:02:43;;;;;;;10.85;9.38;;;;;;;;;;5036617;28;20045;-78
2023/05/13 14:05:09;;;;;;;11.63;9.48;;;;;;;;;;5059522;28;20055;-78
2023/05/13 14:07:36;;;;;;;13.25;9.57;;;;;;;;;;5043479;28;20120;-78
2023/05/13 14:10:02;;;;;;;11.68;9.52;;;;;;;;;;5055282;28;20111;-78
2023/05/13 14:12:28;;;;;;;10.30;9.25;;;;;;;;;;5072849;28;20072;-77
2023/05/13 14:14:54;;;;;;;11.13;8.90;;;;;;;;;;5040091;28;20494;-78
2023/05/13 14:17:20;;;;;;;10.52;9.27;;;;;;;;;;5056591;28;20056;-78
2023/05/13 14:19:50;;;;;;;13.65;9.85;;;;;;;;;;5038849;28;20041;-84
2023/05/13 14:22:16;;;;;;;12.52;9.88;;;;;;;;;;5045565;28;20041;-77
2023/05/13 14:24:42;;;;;;;11.50;10.30;;;;;;;;;;5057230;28;20052;-77